createdAt,value
2023-05-13T00:00:12.444Z,23.63
2023-05-13T00:01:12.486Z,23.63
2023-05-13T00:02:11.535Z,23.61
2023-05-13T00:03:11.793Z,23.63
2023-05-13T00:04:12.602Z,23.61
2023-05-13T00:05:12.643Z,23.61
2023-05-13T00:06:11.719Z,23.63
2023-05-13T00:07:11.731Z,23.61
2023-05-13T00:08:11.772Z,23.63
2023-05-13T00:09:12.802Z,23.60
2023-05-13T00:10:12.880Z,23.61
2023-05-13T00:11:11.910Z,23.57
2023-05-13T00:12:12.936Z,23.63
2023-05-13T00:13:11.992Z,23.59
2023-05-13T00:14:12.065Z,23.60
2023-05-13T00:15:12.081Z,23.59
2023-05-13T00:16:12.174Z,23.61
2023-05-13T00:17:12.152Z,23.60
2023-05-13T00:18:13.199Z,23.59
2023-05-13T00:19:12.404Z,23.61
2023-05-13T00:20:12.279Z,23.61
2023-05-13T00:21:13.319Z,23.59
2023-05-13T00:22:13.358Z,23.57
2023-05-13T00:23:12.420Z,23.63
2023-05-13T00:24:13.438Z,23.60
2023-05-13T00:25:12.486Z,23.59
2023-05-13T00:26:12.578Z,23.60
2023-05-13T00:27:13.578Z,23.59
2023-05-13T00:28:13.626Z,23.60
2023-05-13T00:29:12.686Z,23.60
2023-05-13T00:30:13.729Z,23.60
2023-05-13T00:31:12.808Z,23.59
2023-05-13T00:32:13.827Z,23.57
2023-05-13T00:33:12.861Z,23.57
2023-05-13T00:34:13.893Z,23.57
2023-05-13T00:35:13.948Z,23.57
2023-05-13T00:36:13.992Z,23.59
2023-05-13T00:37:13.039Z,23.56
2023-05-13T00:38:13.087Z,23.56
2023-05-13T00:39:14.137Z,23.57
2023-05-13T00:40:13.199Z,23.56
2023-05-13T00:41:13.245Z,23.59
2023-05-13T00:42:13.306Z,23.60
2023-05-13T00:43:13.337Z,23.57
2023-05-13T00:44:14.630Z,23.59
2023-05-13T00:45:14.422Z,23.57
2023-05-13T00:46:14.483Z,23.56
2023-05-13T00:47:13.525Z,23.54
2023-05-13T00:48:14.584Z,23.57
2023-05-13T00:49:13.617Z,23.57
2023-05-13T00:50:14.661Z,23.56
2023-05-13T00:51:13.727Z,23.53
2023-05-13T00:52:13.836Z,23.56
2023-05-13T00:53:14.808Z,23.56
2023-05-13T00:54:13.856Z,23.56
2023-05-13T00:55:14.902Z,23.54
2023-05-13T00:56:13.956Z,23.53
2023-05-13T00:57:15.012Z,23.54
2023-05-13T00:58:15.084Z,23.54
2023-05-13T00:59:14.089Z,23.54
2023-05-13T01:00:14.158Z,23.54
2023-05-13T01:01:14.276Z,23.54
2023-05-13T01:02:15.310Z,23.54
2023-05-13T01:03:15.504Z,23.54
2023-05-13T01:04:15.372Z,23.54
2023-05-13T01:05:15.405Z,23.54
2023-05-13T01:06:14.448Z,23.52
2023-05-13T01:07:15.505Z,23.54
2023-05-13T01:08:14.571Z,23.54
2023-05-13T01:09:15.616Z,23.56
2023-05-13T01:10:15.664Z,23.53
2023-05-13T01:11:15.718Z,23.53
2023-05-13T01:12:14.754Z,23.54
2023-05-13T01:13:15.805Z,23.54
2023-05-13T01:14:14.883Z,23.56
2023-05-13T01:15:15.909Z,23.54
2023-05-13T01:16:15.995Z,23.56
2023-05-13T01:17:16.011Z,23.54
2023-05-13T01:18:15.036Z,23.54
2023-05-13T01:19:16.137Z,23.54
2023-05-13T01:20:15.154Z,23.52
2023-05-13T01:21:15.189Z,23.52
2023-05-13T01:22:16.238Z,23.54
2023-05-13T01:23:16.306Z,23.53
2023-05-13T01:24:15.388Z,23.52
2023-05-13T01:25:16.400Z,23.53
2023-05-13T01:26:16.452Z,23.50
2023-05-13T01:27:16.505Z,23.53
2023-05-13T01:28:16.540Z,23.49
2023-05-13T01:29:15.583Z,23.50
2023-05-13T01:30:16.664Z,23.52
2023-05-13T01:31:16.725Z,23.52
2023-05-13T01:32:16.758Z,23.53
2023-05-13T01:33:16.792Z,23.50
2023-05-13T01:34:15.841Z,23.50
2023-05-13T01:35:15.913Z,23.48
2023-05-13T01:36:16.942Z,23.52
2023-05-13T01:37:15.989Z,23.50
2023-05-13T01:38:17.035Z,23.50
2023-05-13T01:39:16.102Z,23.53
2023-05-13T01:40:31.148Z,23.50
2023-05-13T01:41:17.135Z,23.52
2023-05-13T01:42:17.125Z,23.50
2023-05-13T01:43:16.133Z,23.50
2023-05-13T01:44:16.110Z,23.50
2023-05-13T01:45:16.139Z,23.49
2023-05-13T01:46:16.197Z,23.50
2023-05-13T01:47:17.099Z,23.49
2023-05-13T01:48:16.105Z,23.53
2023-05-13T01:49:17.086Z,23.49
2023-05-13T01:50:17.079Z,23.52
2023-05-13T01:51:17.062Z,23.49
2023-05-13T01:52:17.075Z,23.50
2023-05-13T01:53:16.054Z,23.50
2023-05-13T01:54:17.047Z,23.49
2023-05-13T01:55:17.055Z,23.49
2023-05-13T01:56:16.032Z,23.52
2023-05-13T01:57:16.023Z,23.50
2023-05-13T01:58:17.028Z,23.50
2023-05-13T01:59:17.026Z,23.48
2023-05-13T02:00:16.006Z,23.48
2023-05-13T02:01:17.057Z,23.48
2023-05-13T02:02:17.047Z,23.49
2023-05-13T02:03:17.057Z,23.49
2023-05-13T02:04:16.009Z,23.48
2023-05-13T02:05:17.058Z,23.49
2023-05-13T02:06:16.971Z,23.46
2023-05-13T02:07:16.995Z,23.46
2023-05-13T02:08:17.060Z,23.49
2023-05-13T02:09:16.105Z,23.49
2023-05-13T02:10:16.179Z,23.49
2023-05-13T02:11:17.214Z,23.46
2023-05-13T02:12:17.280Z,23.48
2023-05-13T02:13:16.310Z,23.48
2023-05-13T02:14:17.361Z,23.45
2023-05-13T02:15:17.422Z,23.48
2023-05-13T02:16:17.516Z,23.50
2023-05-13T02:17:17.538Z,23.50
2023-05-13T02:18:17.622Z,23.49
2023-05-13T02:19:17.675Z,23.48
2023-05-13T02:20:17.723Z,23.45
2023-05-13T02:21:16.772Z,23.46
2023-05-13T02:22:17.825Z,23.48
2023-05-13T02:23:17.886Z,23.45
2023-05-13T02:24:17.934Z,23.46
2023-05-13T02:25:17.996Z,23.46
2023-05-13T02:26:17.038Z,23.48
2023-05-13T02:27:18.094Z,23.46
2023-05-13T02:28:17.146Z,23.45
2023-05-13T02:29:18.196Z,23.45
2023-05-13T02:30:18.252Z,23.43
2023-05-13T02:31:17.306Z,23.45
2023-05-13T02:32:17.363Z,23.45
2023-05-13T02:33:17.389Z,23.46
2023-05-13T02:34:18.473Z,23.48
2023-05-13T02:35:18.517Z,23.45
2023-05-13T02:36:18.565Z,23.45
2023-05-13T02:37:17.600Z,23.45
2023-05-13T02:38:18.662Z,23.43
2023-05-13T02:39:18.713Z,23.48
2023-05-13T02:40:18.878Z,23.43
2023-05-13T02:41:17.816Z,23.48
2023-05-13T02:42:18.868Z,23.43
2023-05-13T02:43:18.918Z,23.46
2023-05-13T02:44:19.015Z,23.43
2023-05-13T02:45:19.045Z,23.46
2023-05-13T02:46:18.117Z,23.46
2023-05-13T02:47:18.150Z,23.40
2023-05-13T02:48:18.202Z,23.46
2023-05-13T02:49:19.251Z,23.45
2023-05-13T02:50:19.499Z,23.45
2023-05-13T02:51:19.361Z,23.43
2023-05-13T02:52:19.425Z,23.46
2023-05-13T02:53:18.481Z,23.42
2023-05-13T02:54:19.533Z,23.42
2023-05-13T02:55:19.620Z,23.45
2023-05-13T02:56:18.638Z,23.43
2023-05-13T02:57:19.713Z,23.43
2023-05-13T02:58:19.780Z,23.45
2023-05-13T02:59:18.817Z,23.42
2023-05-13T03:00:20.127Z,23.45
2023-05-13T03:01:18.975Z,23.40
2023-05-13T03:02:20.066Z,23.42
2023-05-13T03:03:19.218Z,23.42
2023-05-13T03:04:19.128Z,23.45
2023-05-13T03:05:20.154Z,23.42
2023-05-13T03:06:20.274Z,23.43
2023-05-13T03:07:20.281Z,23.40
2023-05-13T03:08:19.333Z,23.43
2023-05-13T03:09:20.387Z,23.45
2023-05-13T03:10:19.594Z,23.42
2023-05-13T03:11:20.509Z,23.42
2023-05-13T03:12:19.595Z,23.42
2023-05-13T03:13:19.624Z,23.40
2023-05-13T03:14:20.699Z,23.43
2023-05-13T03:15:20.749Z,23.43
2023-05-13T03:16:20.903Z,23.40
2023-05-13T03:17:20.937Z,23.42
2023-05-13T03:18:20.924Z,23.43
2023-05-13T03:19:19.956Z,23.43
2023-05-13T03:20:21.245Z,23.42
2023-05-13T03:21:21.064Z,23.40
2023-05-13T03:22:20.143Z,23.43
2023-05-13T03:23:21.211Z,23.42
2023-05-13T03:24:20.215Z,23.42
2023-05-13T03:25:21.272Z,23.42
2023-05-13T03:26:20.333Z,23.43
2023-05-13T03:27:20.392Z,23.42
2023-05-13T03:28:21.459Z,23.43
2023-05-13T03:29:20.492Z,23.39
2023-05-13T03:30:21.774Z,23.40
2023-05-13T03:31:21.643Z,23.38
2023-05-13T03:32:21.702Z,23.42
2023-05-13T03:33:21.751Z,23.42
2023-05-13T03:34:20.796Z,23.42
2023-05-13T03:35:21.872Z,23.43
2023-05-13T03:36:21.930Z,23.40
2023-05-13T03:37:20.984Z,23.45
2023-05-13T03:38:22.089Z,23.45
2023-05-13T03:39:21.172Z,23.42
2023-05-13T03:40:22.476Z,23.42
2023-05-13T03:41:21.240Z,23.39
2023-05-13T03:42:21.295Z,23.39
2023-05-13T03:43:22.372Z,23.38
2023-05-13T03:44:21.414Z,23.40
2023-05-13T03:45:22.466Z,23.38
2023-05-13T03:46:21.577Z,23.42
2023-05-13T03:47:21.603Z,23.39
2023-05-13T03:48:22.670Z,23.39
2023-05-13T03:49:22.723Z,23.39
2023-05-13T03:50:23.070Z,23.39
2023-05-13T03:51:21.821Z,23.38
2023-05-13T03:52:22.905Z,23.39
2023-05-13T03:53:22.948Z,23.39
2023-05-13T03:54:23.054Z,23.39
2023-05-13T03:55:22.089Z,23.39
2023-05-13T03:56:22.131Z,23.42
2023-05-13T03:57:23.262Z,23.36
2023-05-13T03:58:23.276Z,23.38
2023-05-13T03:59:23.318Z,23.40
2023-05-13T04:00:23.525Z,23.36
2023-05-13T04:01:23.444Z,23.39
2023-05-13T04:02:23.578Z,23.38
2023-05-13T04:03:23.671Z,23.38
2023-05-13T04:04:22.721Z,23.39
2023-05-13T04:05:22.746Z,23.36
2023-05-13T04:06:23.743Z,23.38
2023-05-13T04:07:23.807Z,23.36
2023-05-13T04:08:22.873Z,23.38
2023-05-13T04:09:23.929Z,23.36
2023-05-13T04:10:23.196Z,23.38
2023-05-13T04:11:23.043Z,23.38
2023-05-13T04:12:24.106Z,23.39
2023-05-13T04:13:23.164Z,23.38
2023-05-13T04:14:24.223Z,23.34
2023-05-13T04:15:24.274Z,23.36
2023-05-13T04:16:24.374Z,23.38
2023-05-13T04:17:24.456Z,23.38
2023-05-13T04:18:24.472Z,23.38
2023-05-13T04:19:24.519Z,23.38
2023-05-13T04:20:23.864Z,23.38
2023-05-13T04:21:24.637Z,23.38
2023-05-13T04:22:24.698Z,23.38
2023-05-13T04:23:24.769Z,23.38
2023-05-13T04:24:23.840Z,23.38
2023-05-13T04:25:23.882Z,23.38
2023-05-13T04:26:24.982Z,23.36
2023-05-13T04:27:24.008Z,23.34
2023-05-13T04:28:24.059Z,23.42
2023-05-13T04:29:24.122Z,23.39
2023-05-13T04:30:24.182Z,23.39
2023-05-13T04:31:25.258Z,23.38
2023-05-13T04:32:24.331Z,23.39
2023-05-13T04:33:25.366Z,23.36
2023-05-13T04:34:25.431Z,23.34
2023-05-13T04:35:24.497Z,23.39
2023-05-13T04:36:25.550Z,23.36
2023-05-13T04:37:25.618Z,23.39
2023-05-13T04:38:24.676Z,23.38
2023-05-13T04:39:25.718Z,23.38
2023-05-13T04:40:25.765Z,23.34
2023-05-13T04:41:25.827Z,23.34
2023-05-13T04:42:26.001Z,23.34
2023-05-13T04:43:25.973Z,23.38
2023-05-13T04:44:26.020Z,23.34
2023-05-13T04:45:25.088Z,23.34
2023-05-13T04:46:26.181Z,23.36
2023-05-13T04:47:26.231Z,23.38
2023-05-13T04:48:26.256Z,23.36
2023-05-13T04:49:25.319Z,23.36
2023-05-13T04:50:25.410Z,23.38
2023-05-13T04:51:25.440Z,23.36
2023-05-13T04:52:26.530Z,23.40
2023-05-13T04:53:26.596Z,23.36
2023-05-13T04:54:26.651Z,23.36
2023-05-13T04:55:27.768Z,23.38
2023-05-13T04:56:26.737Z,23.36
2023-05-13T04:57:25.816Z,23.34
2023-05-13T04:58:26.887Z,23.34
2023-05-13T04:59:26.937Z,23.38
2023-05-13T05:00:26.997Z,23.36
2023-05-13T05:01:26.125Z,23.38
2023-05-13T05:02:27.149Z,23.34
2023-05-13T05:03:26.217Z,23.38
2023-05-13T05:04:26.245Z,23.34
2023-05-13T05:05:27.323Z,23.34
2023-05-13T05:06:27.380Z,23.34
2023-05-13T05:07:26.450Z,23.38
2023-05-13T05:08:27.500Z,23.38
2023-05-13T05:09:27.559Z,23.38
2023-05-13T05:10:27.621Z,23.39
2023-05-13T05:11:26.674Z,23.38
2023-05-13T05:12:28.409Z,23.34
2023-05-13T05:13:26.821Z,23.36
2023-05-13T05:14:26.897Z,23.38
2023-05-13T05:15:27.963Z,23.34
2023-05-13T05:16:26.980Z,23.34
2023-05-13T05:17:27.113Z,23.36
2023-05-13T05:18:27.276Z,23.34
2023-05-13T05:19:28.310Z,23.33
2023-05-13T05:20:28.227Z,23.33
2023-05-13T05:21:27.279Z,23.36
2023-05-13T05:22:27.359Z,23.39
2023-05-13T05:23:28.408Z,23.36
2023-05-13T05:24:28.471Z,23.39
2023-05-13T05:25:28.543Z,23.36
2023-05-13T05:26:28.600Z,23.36
2023-05-13T05:27:27.648Z,23.38
2023-05-13T05:28:28.719Z,23.36
2023-05-13T05:29:28.769Z,23.34
2023-05-13T05:30:28.864Z,23.36
2023-05-13T05:31:28.935Z,23.38
2023-05-13T05:32:27.969Z,23.38
2023-05-13T05:33:29.021Z,23.36
2023-05-13T05:34:29.074Z,23.38
2023-05-13T05:35:29.147Z,23.34
2023-05-13T05:36:29.173Z,23.36
2023-05-13T05:37:29.238Z,23.38
2023-05-13T05:38:28.300Z,23.34
2023-05-13T05:39:28.365Z,23.36
2023-05-13T05:40:29.406Z,23.34
2023-05-13T05:41:28.464Z,23.38
2023-05-13T05:42:28.531Z,23.38
2023-05-13T05:43:28.644Z,23.34
2023-05-13T05:44:28.640Z,23.38
2023-05-13T05:45:28.724Z,23.39
2023-05-13T05:46:29.852Z,23.36
2023-05-13T05:47:28.923Z,23.38
2023-05-13T05:48:30.445Z,23.36
2023-05-13T05:49:29.140Z,23.39
2023-05-13T05:50:29.203Z,23.36
2023-05-13T05:51:30.234Z,23.36
2023-05-13T05:52:29.325Z,23.38
2023-05-13T05:53:29.374Z,23.36
2023-05-13T05:54:30.432Z,23.40
2023-05-13T05:55:30.478Z,23.36
2023-05-13T05:56:30.541Z,23.36
2023-05-13T05:57:29.587Z,23.38
2023-05-13T05:58:30.679Z,23.36
2023-05-13T05:59:30.702Z,23.38
2023-05-13T06:00:30.754Z,23.39
2023-05-13T06:01:30.817Z,23.40
2023-05-13T06:02:30.030Z,23.39
2023-05-13T06:03:30.000Z,23.40
2023-05-13T06:04:30.098Z,23.39
2023-05-13T06:05:31.060Z,23.40
2023-05-13T06:06:30.179Z,23.42
2023-05-13T06:07:31.161Z,23.40
2023-05-13T06:08:31.277Z,23.40
2023-05-13T06:09:31.287Z,23.38
2023-05-13T06:10:31.338Z,23.39
2023-05-13T06:11:31.404Z,23.40
2023-05-13T06:12:31.452Z,23.42
2023-05-13T06:13:30.513Z,23.42
2023-05-13T06:14:31.584Z,23.43
2023-05-13T06:15:31.640Z,23.43
2023-05-13T06:16:31.773Z,23.42
2023-05-13T06:17:31.777Z,23.43
2023-05-13T06:18:31.894Z,23.39
2023-05-13T06:19:30.869Z,23.40
2023-05-13T06:20:31.907Z,23.43
2023-05-13T06:21:31.980Z,23.42
2023-05-13T06:22:32.104Z,23.42
2023-05-13T06:23:32.085Z,23.42
2023-05-13T06:24:32.143Z,23.42
2023-05-13T06:25:31.195Z,23.45
2023-05-13T06:26:32.266Z,23.40
2023-05-13T06:27:32.329Z,23.43
2023-05-13T06:28:32.373Z,23.43
2023-05-13T06:29:31.438Z,23.43
2023-05-13T06:30:32.496Z,23.42
2023-05-13T06:31:32.579Z,23.40
2023-05-13T06:32:32.652Z,23.45
2023-05-13T06:33:31.752Z,23.46
2023-05-13T06:34:31.763Z,23.45
2023-05-13T06:35:32.868Z,23.43
2023-05-13T06:36:32.851Z,23.43
2023-05-13T06:37:31.913Z,23.43
2023-05-13T06:38:31.977Z,23.46
2023-05-13T06:39:33.032Z,23.43
2023-05-13T06:40:33.101Z,23.48
2023-05-13T06:41:33.160Z,23.45
2023-05-13T06:42:32.211Z,23.46
2023-05-13T06:43:32.262Z,23.46
2023-05-13T06:44:33.337Z,23.48
2023-05-13T06:45:32.388Z,23.48
2023-05-13T06:46:32.451Z,23.45
2023-05-13T06:47:33.522Z,23.48
2023-05-13T06:48:32.558Z,23.48
2023-05-13T06:49:33.639Z,23.46
2023-05-13T06:50:32.731Z,23.48
2023-05-13T06:51:33.748Z,23.48
2023-05-13T06:52:33.818Z,23.46
2023-05-13T06:53:32.889Z,23.49
2023-05-13T06:54:32.927Z,23.50
2023-05-13T06:55:33.975Z,23.48
2023-05-13T06:56:34.031Z,23.46
2023-05-13T06:57:41.656Z,23.49
2023-05-13T06:58:34.099Z,23.48
2023-05-13T06:59:34.081Z,23.49
2023-05-13T07:00:33.058Z,23.48
2023-05-13T07:01:33.094Z,23.49
2023-05-13T07:02:33.111Z,23.52
2023-05-13T07:03:33.117Z,23.50
2023-05-13T07:04:33.048Z,23.49
2023-05-13T07:05:34.022Z,23.50
2023-05-13T07:06:34.055Z,23.49
2023-05-13T07:07:34.034Z,23.49
2023-05-13T07:08:33.098Z,23.50
2023-05-13T07:09:33.160Z,23.50
2023-05-13T07:10:34.328Z,23.50
2023-05-13T07:11:33.251Z,23.52
2023-05-13T07:12:34.292Z,23.52
2023-05-13T07:13:34.360Z,23.52
2023-05-13T07:14:33.421Z,23.52
2023-05-13T07:15:34.467Z,23.50
2023-05-13T07:16:33.520Z,23.52
2023-05-13T07:17:33.698Z,23.50
2023-05-13T07:18:33.710Z,23.52
2023-05-13T07:19:34.692Z,23.53
2023-05-13T07:20:33.754Z,23.53
2023-05-13T07:21:34.809Z,23.52
2023-05-13T07:22:34.870Z,23.53
2023-05-13T07:23:34.898Z,23.53
2023-05-13T07:24:33.950Z,23.53
2023-05-13T07:25:35.014Z,23.54
2023-05-13T07:26:35.072Z,23.53
2023-05-13T07:27:34.145Z,23.53
2023-05-13T07:28:35.171Z,23.52
2023-05-13T07:29:34.245Z,23.56
2023-05-13T07:30:35.315Z,23.52
2023-05-13T07:31:35.357Z,23.52
2023-05-13T07:32:35.389Z,23.54
2023-05-13T07:33:35.433Z,23.59
2023-05-13T07:34:35.512Z,23.54
2023-05-13T07:35:35.539Z,23.56
2023-05-13T07:36:34.645Z,23.54
2023-05-13T07:37:34.634Z,23.56
2023-05-13T07:38:35.714Z,23.56
2023-05-13T07:39:35.751Z,23.54
2023-05-13T07:40:35.784Z,23.57
2023-05-13T07:41:35.829Z,23.57
2023-05-13T07:42:34.871Z,23.56
2023-05-13T07:43:35.920Z,23.56
2023-05-13T07:44:34.967Z,23.59
2023-05-13T07:45:35.022Z,23.59
2023-05-13T07:46:36.132Z,23.59
2023-05-13T07:47:36.190Z,23.59
2023-05-13T07:48:35.179Z,23.57
2023-05-13T07:49:35.245Z,23.57
2023-05-13T07:50:35.269Z,23.59
2023-05-13T07:51:36.312Z,23.59
2023-05-13T07:52:36.361Z,23.61
2023-05-13T07:53:36.421Z,23.59
2023-05-13T07:54:36.509Z,23.61
2023-05-13T07:55:36.527Z,23.60
2023-05-13T07:56:35.562Z,23.60
2023-05-13T07:57:36.606Z,23.61
2023-05-13T07:58:35.666Z,23.63
2023-05-13T07:59:36.701Z,23.63
2023-05-13T08:00:35.714Z,23.60
2023-05-13T08:01:35.790Z,23.60
2023-05-13T08:02:35.869Z,23.61
2023-05-13T08:03:37.103Z,23.63
2023-05-13T08:04:36.935Z,23.64
2023-05-13T08:05:35.960Z,23.63
2023-05-13T08:06:37.136Z,23.63
2023-05-13T08:07:36.052Z,23.63
2023-05-13T08:08:37.093Z,23.64
2023-05-13T08:09:37.136Z,23.63
2023-05-13T08:10:36.227Z,23.66
2023-05-13T08:11:37.239Z,23.64
2023-05-13T08:12:37.308Z,23.69
2023-05-13T08:13:37.310Z,23.67
2023-05-13T08:14:36.359Z,23.64
2023-05-13T08:15:36.407Z,23.67
2023-05-13T08:16:37.525Z,23.67
2023-05-13T08:17:37.523Z,23.67
2023-05-13T08:18:37.555Z,23.67
2023-05-13T08:19:37.579Z,23.69
2023-05-13T08:20:36.635Z,23.67
2023-05-13T08:21:36.650Z,23.69
2023-05-13T08:22:37.700Z,23.69
2023-05-13T08:23:44.707Z,23.70
2023-05-13T08:24:37.745Z,23.69
2023-05-13T08:25:37.721Z,23.70
2023-05-13T08:26:37.744Z,23.69
2023-05-13T08:27:37.699Z,23.70
2023-05-13T08:28:37.699Z,23.71
2023-05-13T08:29:37.707Z,23.71
2023-05-13T08:30:36.698Z,23.70
2023-05-13T08:31:37.690Z,23.71
2023-05-13T08:32:36.719Z,23.73
2023-05-13T08:33:36.673Z,23.73
2023-05-13T08:34:36.676Z,23.71
2023-05-13T08:35:37.662Z,23.73
2023-05-13T08:36:37.659Z,23.71
2023-05-13T08:37:36.696Z,23.73
2023-05-13T08:38:37.739Z,23.76
2023-05-13T08:39:36.784Z,23.73
2023-05-13T08:40:37.903Z,23.73
2023-05-13T08:41:36.870Z,23.74
2023-05-13T08:42:36.908Z,23.77
2023-05-13T08:43:36.910Z,23.76
2023-05-13T08:44:36.936Z,23.77
2023-05-13T08:45:38.005Z,23.73
2023-05-13T08:46:38.116Z,23.77
2023-05-13T08:47:38.154Z,23.77
2023-05-13T08:48:38.088Z,23.78
2023-05-13T08:49:38.123Z,23.78
2023-05-13T08:50:37.164Z,23.81
2023-05-13T08:51:38.190Z,23.80
2023-05-13T08:52:38.248Z,23.81
2023-05-13T08:53:38.274Z,23.83
2023-05-13T08:54:37.316Z,23.81
2023-05-13T08:55:38.329Z,23.84
2023-05-13T08:56:38.385Z,23.87
2023-05-13T08:57:38.403Z,23.85
2023-05-13T08:58:38.465Z,23.84
2023-05-13T08:59:37.454Z,23.87
2023-05-13T09:00:37.476Z,23.83
2023-05-13T09:01:38.539Z,23.87
2023-05-13T09:02:38.580Z,23.87
2023-05-13T09:03:37.560Z,23.88
2023-05-13T09:04:38.570Z,23.93
2023-05-13T09:05:39.075Z,23.91
2023-05-13T09:06:37.601Z,23.93
2023-05-13T09:07:37.621Z,23.94
2023-05-13T09:08:38.639Z,23.95
2023-05-13T09:09:38.652Z,23.98
2023-05-13T09:10:37.691Z,23.98
2023-05-13T09:11:37.709Z,24.00
2023-05-13T09:12:38.692Z,23.98
2023-05-13T09:13:38.727Z,24.00
2023-05-13T09:14:38.771Z,24.00
2023-05-13T09:15:37.784Z,24.03
2023-05-13T09:16:38.846Z,24.03
2023-05-13T09:17:37.791Z,24.04
2023-05-13T09:18:37.925Z,24.04
2023-05-13T09:19:38.873Z,24.01
2023-05-13T09:20:38.824Z,24.03
2023-05-13T09:21:38.834Z,24.04
2023-05-13T09:22:37.863Z,24.03
2023-05-13T09:23:38.860Z,24.04
2023-05-13T09:24:38.866Z,24.01
2023-05-13T09:25:38.880Z,24.05
2023-05-13T09:26:38.909Z,24.04
2023-05-13T09:27:38.920Z,24.04
2023-05-13T09:28:38.899Z,24.04
2023-05-13T09:29:38.925Z,24.05
2023-05-13T09:30:38.988Z,24.05
2023-05-13T09:31:39.012Z,24.07
2023-05-13T09:32:38.015Z,24.07
2023-05-13T09:33:38.969Z,24.07
2023-05-13T09:34:37.968Z,24.07
2023-05-13T09:35:37.968Z,24.03
2023-05-13T09:36:38.984Z,24.07
2023-05-13T09:37:38.018Z,24.09
2023-05-13T09:38:38.006Z,24.09
2023-05-13T09:39:38.031Z,24.09
2023-05-13T09:40:38.026Z,24.09
2023-05-13T09:41:39.014Z,24.09
2023-05-13T09:42:39.049Z,24.09
2023-05-13T09:43:38.032Z,24.11
2023-05-13T09:44:39.052Z,24.11
2023-05-13T09:45:38.045Z,24.14
2023-05-13T09:46:39.088Z,24.12
2023-05-13T09:47:38.075Z,24.12
2023-05-13T09:48:39.061Z,24.14
2023-05-13T09:49:39.061Z,24.15
2023-05-13T09:50:38.066Z,24.14
2023-05-13T09:51:39.081Z,24.12
2023-05-13T09:52:38.084Z,24.15
2023-05-13T09:53:39.080Z,24.12
2023-05-13T09:54:38.077Z,24.16
2023-05-13T09:55:39.095Z,24.14
2023-05-13T09:56:38.089Z,24.18
2023-05-13T09:57:39.109Z,24.18
2023-05-13T09:58:39.102Z,24.18
2023-05-13T09:59:38.107Z,24.18
2023-05-13T10:00:39.234Z,24.18
2023-05-13T10:01:38.130Z,24.19
2023-05-13T10:02:39.108Z,24.16
2023-05-13T10:03:39.109Z,24.19
2023-05-13T10:04:38.082Z,24.21
2023-05-13T10:05:39.086Z,24.18
2023-05-13T10:06:39.096Z,24.16
2023-05-13T10:07:38.079Z,24.18
2023-05-13T10:08:38.089Z,24.21
2023-05-13T10:09:39.078Z,24.16
2023-05-13T10:10:38.109Z,24.18
2023-05-13T10:11:38.079Z,24.16
2023-05-13T10:12:39.064Z,24.16
2023-05-13T10:13:38.063Z,24.19
2023-05-13T10:14:38.085Z,24.19
2023-05-13T10:15:38.056Z,24.18
2023-05-13T10:16:38.065Z,24.15
2023-05-13T10:17:38.112Z,24.15
2023-05-13T10:18:38.120Z,24.15
2023-05-13T10:19:38.052Z,24.15
2023-05-13T10:20:39.054Z,24.15
2023-05-13T10:21:39.054Z,24.16
2023-05-13T10:22:39.054Z,24.14
2023-05-13T10:23:38.065Z,24.12
2023-05-13T10:24:38.769Z,24.14
2023-05-13T10:25:39.053Z,24.15
2023-05-13T10:26:39.046Z,24.15
2023-05-13T10:27:39.035Z,24.15
2023-05-13T10:28:39.096Z,24.15
2023-05-13T10:29:38.046Z,24.12
2023-05-13T10:30:38.044Z,24.14
2023-05-13T10:31:38.060Z,24.14
2023-05-13T10:32:38.085Z,24.14
2023-05-13T10:33:38.043Z,24.14
2023-05-13T10:34:38.061Z,24.15
2023-05-13T10:35:41.975Z,24.14
2023-05-13T10:36:39.061Z,24.16
2023-05-13T10:37:38.045Z,24.15
2023-05-13T10:38:39.025Z,24.16
2023-05-13T10:39:39.024Z,24.14
2023-05-13T10:40:38.003Z,24.14
2023-05-13T10:41:39.012Z,24.16
2023-05-13T10:42:38.998Z,24.16
2023-05-13T10:43:38.012Z,24.18
2023-05-13T10:44:37.984Z,24.18
2023-05-13T10:45:38.996Z,24.16
2023-05-13T10:46:39.116Z,24.18
2023-05-13T10:47:38.140Z,24.18
2023-05-13T10:48:38.045Z,24.16
2023-05-13T10:49:37.959Z,24.16
2023-05-13T10:50:39.044Z,24.19
2023-05-13T10:51:37.930Z,24.16
2023-05-13T10:52:37.928Z,24.16
2023-05-13T10:53:37.921Z,24.21
2023-05-13T10:54:38.943Z,24.19
2023-05-13T10:55:37.911Z,24.16
2023-05-13T10:56:38.902Z,24.21
2023-05-13T10:57:37.942Z,24.18
2023-05-13T10:58:38.909Z,24.19
2023-05-13T10:59:38.909Z,24.18
2023-05-13T11:00:38.906Z,24.18
2023-05-13T11:01:38.901Z,24.21
2023-05-13T11:02:37.935Z,24.19
2023-05-13T11:03:37.939Z,24.19
2023-05-13T11:04:38.844Z,24.23
2023-05-13T11:05:37.843Z,24.19
2023-05-13T11:06:38.882Z,24.19
2023-05-13T11:07:37.833Z,24.21
2023-05-13T11:08:38.827Z,24.22
2023-05-13T11:09:38.815Z,24.22
2023-05-13T11:10:38.849Z,24.22
2023-05-13T11:11:37.812Z,24.23
2023-05-13T11:12:37.784Z,24.23
2023-05-13T11:13:38.796Z,24.22
2023-05-13T11:14:38.790Z,24.23
2023-05-13T11:15:37.788Z,24.26
2023-05-13T11:16:38.915Z,24.25
2023-05-13T11:17:37.783Z,24.22
2023-05-13T11:18:37.782Z,24.25
2023-05-13T11:19:37.760Z,24.25
2023-05-13T11:20:51.206Z,24.25
2023-05-13T11:21:38.957Z,24.25
2023-05-13T11:22:37.957Z,24.23
2023-05-13T11:23:37.968Z,24.25
2023-05-13T11:24:38.926Z,24.23
2023-05-13T11:25:38.935Z,24.26
2023-05-13T11:26:37.949Z,24.23
2023-05-13T11:27:38.963Z,24.28
2023-05-13T11:28:37.958Z,24.26
2023-05-13T11:29:38.990Z,24.25
2023-05-13T11:30:38.966Z,24.28
2023-05-13T11:31:39.014Z,24.26
2023-05-13T11:32:37.993Z,24.26
2023-05-13T11:33:38.984Z,24.26
2023-05-13T11:34:39.005Z,24.28
2023-05-13T11:35:39.019Z,24.26
2023-05-13T11:36:38.036Z,24.31
2023-05-13T11:37:39.052Z,24.29
2023-05-13T11:38:39.068Z,24.26
2023-05-13T11:39:38.069Z,24.32
2023-05-13T11:40:38.074Z,24.32
2023-05-13T11:41:39.104Z,24.31
2023-05-13T11:42:38.112Z,24.31
2023-05-13T11:43:38.137Z,24.32
2023-05-13T11:44:39.181Z,24.36
2023-05-13T11:45:38.230Z,24.35
2023-05-13T11:46:38.228Z,24.36
2023-05-13T11:47:38.301Z,24.35
2023-05-13T11:48:39.277Z,24.38
2023-05-13T11:49:39.291Z,24.38
2023-05-13T11:50:39.326Z,24.36
2023-05-13T11:51:39.289Z,24.39
2023-05-13T11:52:39.305Z,24.40
2023-05-13T11:53:39.305Z,24.42
2023-05-13T11:54:39.329Z,24.40
2023-05-13T11:55:38.333Z,24.43
2023-05-13T11:56:38.336Z,24.42
2023-05-13T11:57:38.339Z,24.43
2023-05-13T11:58:39.337Z,24.43
2023-05-13T11:59:47.618Z,24.42
2023-05-13T12:00:39.345Z,24.44
2023-05-13T12:01:38.330Z,24.46
2023-05-13T12:02:38.564Z,24.44
2023-05-13T12:03:38.327Z,24.42
2023-05-13T12:04:39.337Z,24.44
2023-05-13T12:05:39.360Z,24.42
2023-05-13T12:06:39.292Z,24.43
2023-05-13T12:07:39.394Z,24.43
2023-05-13T12:08:38.284Z,24.43
2023-05-13T12:09:38.277Z,24.42
2023-05-13T12:10:39.301Z,24.44
2023-05-13T12:11:38.256Z,24.43
2023-05-13T12:12:38.255Z,24.44
2023-05-13T12:13:39.262Z,24.43
2023-05-13T12:14:39.243Z,24.43
2023-05-13T12:15:38.266Z,24.42
2023-05-13T12:16:38.222Z,24.42
2023-05-13T12:17:38.243Z,24.42
2023-05-13T12:18:38.284Z,24.43
2023-05-13T12:19:39.219Z,24.42
2023-05-13T12:20:38.224Z,24.42
2023-05-13T12:21:39.204Z,24.42
2023-05-13T12:22:39.193Z,24.44
2023-05-13T12:23:38.192Z,24.44
2023-05-13T12:24:39.174Z,24.43
2023-05-13T12:25:39.178Z,24.44
2023-05-13T12:26:38.197Z,24.43
2023-05-13T12:27:39.169Z,24.44
2023-05-13T12:28:39.160Z,24.44
2023-05-13T12:29:38.171Z,24.44
2023-05-13T12:30:39.203Z,24.46
2023-05-13T12:31:38.259Z,24.43
2023-05-13T12:32:39.270Z,24.43
2023-05-13T12:33:39.256Z,24.44
2023-05-13T12:34:38.251Z,24.43
2023-05-13T12:35:38.270Z,24.44
2023-05-13T12:36:39.382Z,24.44
2023-05-13T12:37:38.287Z,24.46
2023-05-13T12:38:39.280Z,24.44
2023-05-13T12:39:39.283Z,24.46
2023-05-13T12:40:38.316Z,24.43
2023-05-13T12:41:39.349Z,24.44
2023-05-13T12:42:39.325Z,24.43
2023-05-13T12:43:39.331Z,24.46
2023-05-13T12:44:39.325Z,24.43
2023-05-13T12:45:41.574Z,24.46
2023-05-13T12:46:38.370Z,24.44
2023-05-13T12:47:38.326Z,24.44
2023-05-13T12:48:38.300Z,24.46
2023-05-13T12:49:38.304Z,24.48
2023-05-13T12:50:39.282Z,24.46
2023-05-13T12:51:39.290Z,24.46
2023-05-13T12:52:39.278Z,24.46